Time;durP1;ratioP1;P1;durP2;ratioP2;P2;SDS_P1;SDS_P2;PMS_P1;PMS_P2;Temp;Humidity;BMP_temperature;BMP_pressure;BME280_temperature;BME280_humidity;BME280_pressure;Samples;Min_cycle;Max_cycle;Signal;HPM_P1;HPM_P2
2023/07/05 00:00:41;;;;;;;7.45;2.97;;;15.70;83.20;;;;;;5032942;28;20069;-74
2023/07/05 00:03:08;;;;;;;6.03;3.22;;;15.70;83.20;;;;;;5034619;28;20385;-74
2023/07/05 00:05:38;;;;;;;6.45;2.78;;;15.70;83.30;;;;;;5027174;28;20045;-73
2023/07/05 00:08:05;;;;;;;6.30;2.88;;;15.70;83.60;;;;;;5033919;28;20032;-74
2023/07/05 00:10:30;;;;;;;6.53;3.15;;;15.60;83.30;;;;;;5024554;28;20029;-74
2023/07/05 00:12:56;;;;;;;7.93;3.15;;;15.60;83.60;;;;;;5033815;28;20547;-73
2023/07/05 00:15:22;;;;;;;7.30;3.95;;;15.60;83.90;;;;;;5024823;28;20061;-74
2023/07/05 00:17:48;;;;;;;10.32;3.47;;;15.60;83.60;;;;;;5027496;28;20029;-73
2023/07/05 00:20:14;;;;;;;8.00;4.15;;;15.50;83.70;;;;;;5032033;28;20045;-75
2023/07/05 00:22:40;;;;;;;9.15;4.20;;;15.50;83.50;;;;;;5034485;28;20501;-74
2023/07/05 00:25:06;;;;;;;8.50;4.53;;;15.40;83.90;;;;;;5033577;28;20067;-75
2023/07/05 00:27:32;;;;;;;9.73;4.90;;;15.20;84.30;;;;;;5025830;28;20490;-74
2023/07/05 00:29:58;;;;;;;8.35;4.03;;;15.20;84.20;;;;;;5024367;28;20084;-74
2023/07/05 00:32:23;;;;;;;10.27;4.78;;;15.10;84.30;;;;;;5031744;28;20025;-76
2023/07/05 00:34:49;;;;;;;9.35;4.50;;;15.10;84.70;;;;;;5032136;28;20067;-76
2023/07/05 00:37:15;;;;;;;11.52;5.00;;;15.10;84.80;;;;;;5030114;28;20136;-73
2023/07/05 00:39:41;;;;;;;10.23;4.60;;;15.10;84.90;;;;;;5021008;28;20045;-73
2023/07/05 00:42:06;;;;;;;10.50;5.00;;;15.00;84.90;;;;;;5027539;28;20385;-73
2023/07/05 00:44:32;;;;;;;11.60;4.57;;;15.00;85.10;;;;;;5025209;28;20025;-73
2023/07/05 00:47:18;;;;;;;9.95;4.50;;;15.10;85.30;;;;;;5025290;28;20045;-74
2023/07/05 00:49:44;;;;;;;10.00;4.30;;;15.00;84.80;;;;;;5026460;28;20064;-76
2023/07/05 00:52:14;;;;;;;9.70;4.40;;;15.00;84.50;;;;;;5027604;28;20033;-75
2023/07/05 00:54:44;;;;;;;11.07;4.50;;;15.10;84.70;;;;;;5029087;28;20029;-75
2023/07/05 00:57:18;;;;;;;8.25;4.18;;;15.00;84.70;;;;;;5031094;28;20182;-75
2023/07/05 00:59:55;;;;;;;9.57;4.70;;;15.00;85.10;;;;;;5031125;28;20037;-75
2023/07/05 01:02:22;;;;;;;10.80;4.68;;;14.90;85.20;;;;;;5027652;28;20030;-76
2023/07/05 01:04:48;;;;;;;10.18;4.95;;;14.90;85.50;;;;;;5029697;28;20427;-74
2023/07/05 01:07:14;;;;;;;10.93;4.97;;;14.90;85.40;;;;;;5027980;28;20419;-74
2023/07/05 01:09:39;;;;;;;12.25;4.55;;;14.90;85.40;;;;;;5037467;28;20024;-74
2023/07/05 01:12:22;;;;;;;9.38;4.55;;;14.90;85.10;;;;;;5031316;28;20549;-75
2023/07/05 01:15:04;;;;;;;11.48;5.00;;;14.90;85.00;;;;;;5037645;28;20076;-74
2023/07/05 01:17:54;;;;;;;11.00;4.85;;;14.90;84.60;;;;;;5036126;28;20511;-74
2023/07/05 01:20:29;;;;;;;11.90;5.15;;;14.90;84.80;;;;;;5029713;28;20116;-75
2023/07/05 01:23:10;;;;;;;14.57;5.30;;;14.80;84.70;;;;;;5031941;28;20048;-73
2023/07/05 01:25:48;;;;;;;10.30;5.18;;;14.90;84.60;;;;;;5033844;28;20124;-75
2023/07/05 01:28:45;;;;;;;13.45;5.15;;;14.90;84.50;;;;;;5033538;28;20090;-73
2023/07/05 01:31:50;;;;;;;9.98;5.03;;;14.90;84.10;;;;;;5034571;28;20033;-73
2023/07/05 01:34:48;;;;;;;11.50;5.28;;;14.80;83.90;;;;;;5028321;28;20474;-74
2023/07/05 01:37:33;;;;;;;12.43;5.63;;;14.80;84.20;;;;;;5033399;28;20083;-73
2023/07/05 01:39:59;;;;;;;13.35;5.70;;;14.70;84.20;;;;;;5026209;28;20441;-73
2023/07/05 01:42:31;;;;;;;11.90;5.43;;;14.70;84.30;;;;;;5026214;28;20410;-74
2023/07/05 01:44:56;;;;;;;10.57;5.65;;;14.60;84.70;;;;;;5026221;28;20025;-73
2023/07/05 01:47:41;;;;;;;14.82;6.13;;;14.60;84.40;;;;;;5031042;28;20066;-76
2023/07/05 01:50:21;;;;;;;10.52;5.68;;;14.60;84.40;;;;;;5023017;28;20049;-75
2023/07/05 01:53:12;;;;;;;14.40;6.35;;;14.60;84.40;;;;;;5027344;28;20047;-78
2023/07/05 01:55:49;;;;;;;11.02;5.78;;;14.60;84.60;;;;;;5031669;28;20056;-74
2023/07/05 01:58:19;;;;;;;12.30;6.45;;;14.60;84.50;;;;;;5036111;28;20029;-76
2023/07/05 02:00:50;;;;;;;13.15;6.22;;;14.60;84.60;;;;;;5027729;28;20072;-75
2023/07/05 02:03:22;;;;;;;13.63;6.70;;;14.70;84.90;;;;;;5029976;28;20368;-74
2023/07/05 02:05:48;;;;;;;14.43;6.25;;;14.60;84.70;;;;;;5031864;28;20034;-74
2023/07/05 02:08:15;;;;;;;12.20;7.32;;;14.70;84.90;;;;;;5037022;28;20038;-73
2023/07/05 02:10:41;;;;;;;10.60;6.32;;;14.70;84.60;;;;;;5034869;28;20029;-73
2023/07/05 02:13:08;;;;;;;14.55;7.43;;;14.70;84.50;;;;;;5033712;28;20099;-73
2023/07/05 02:15:35;;;;;;;12.35;6.78;;;14.80;84.30;;;;;;5029985;28;20087;-74
2023/07/05 02:18:01;;;;;;;13.95;6.75;;;14.80;84.10;;;;;;5031925;28;20029;-76
2023/07/05 02:20:27;;;;;;;15.77;7.20;;;14.80;84.00;;;;;;5039575;28;20040;-74
2023/07/05 02:22:55;;;;;;;14.68;7.05;;;14.80;83.90;;;;;;5023381;28;20021;-74
2023/07/05 02:25:21;;;;;;;16.67;6.97;;;14.80;84.00;;;;;;5027862;28;20650;-74
2023/07/05 02:27:46;;;;;;;12.20;7.25;;;14.80;84.30;;;;;;5026607;28;20037;-72
2023/07/05 02:30:13;;;;;;;14.88;7.75;;;14.80;83.90;;;;;;5028635;28;20025;-73
2023/07/05 02:32:39;;;;;;;11.30;6.38;;;14.90;84.00;;;;;;5031877;28;20267;-74
2023/07/05 02:35:07;;;;;;;12.82;6.38;;;14.90;83.90;;;;;;5027747;28;20099;-73
2023/07/05 02:37:32;;;;;;;10.48;5.85;;;14.90;83.80;;;;;;5028530;28;20060;-74
2023/07/05 02:39:58;;;;;;;10.98;6.50;;;14.90;83.80;;;;;;5026064;28;20478;-73
2023/07/05 02:42:24;;;;;;;13.57;6.38;;;14.90;83.80;;;;;;5032870;28;20021;-73
2023/07/05 02:44:51;;;;;;;11.88;6.03;;;14.90;84.00;;;;;;5029404;28;20030;-75
2023/07/05 02:47:18;;;;;;;11.10;6.13;;;14.80;83.70;;;;;;5028153;28;20490;-76
2023/07/05 02:49:44;;;;;;;11.57;6.57;;;14.80;83.90;;;;;;5036377;28;20071;-75
2023/07/05 02:52:10;;;;;;;11.07;6.70;;;14.80;83.70;;;;;;5030876;28;20036;-74
2023/07/05 02:54:36;;;;;;;10.82;6.07;;;14.80;83.80;;;;;;5035484;28;20396;-74
2023/07/05 02:57:02;;;;;;;11.80;5.63;;;14.70;83.90;;;;;;5032520;28;20033;-75
2023/07/05 02:59:28;;;;;;;11.52;6.22;;;14.70;84.30;;;;;;5027390;28;20200;-74
2023/07/05 03:01:54;;;;;;;13.70;6.18;;;14.70;84.60;;;;;;5032506;28;20045;-75
2023/07/05 03:04:19;;;;;;;11.60;5.78;;;14.70;85.40;;;;;;5032182;28;20128;-75
2023/07/05 03:06:45;;;;;;;10.65;6.28;;;14.60;85.50;;;;;;5022381;28;20059;-73
2023/07/05 03:09:11;;;;;;;10.77;5.35;;;14.60;86.10;;;;;;5031069;28;20059;-73
2023/07/05 03:11:37;;;;;;;14.38;5.93;;;14.50;86.50;;;;;;5029752;28;20033;-73
2023/07/05 03:14:03;;;;;;;10.45;5.90;;;14.50;86.50;;;;;;5031342;28;20041;-73
2023/07/05 03:16:28;;;;;;;13.00;7.35;;;14.50;86.60;;;;;;5026071;28;20037;-74
2023/07/05 03:18:54;;;;;;;12.93;6.35;;;14.40;86.60;;;;;;5035867;28;20501;-77
2023/07/05 03:21:20;;;;;;;10.95;5.45;;;14.40;86.50;;;;;;5029473;28;20124;-74
2023/07/05 03:23:45;;;;;;;10.30;5.63;;;14.30;86.80;;;;;;5032142;28;20116;-74
2023/07/05 03:26:12;;;;;;;10.57;5.57;;;14.30;86.70;;;;;;5035378;28;20038;-73
2023/07/05 03:28:38;;;;;;;10.48;5.40;;;14.30;86.70;;;;;;5026491;28;20427;-75
2023/07/05 03:31:11;;;;;;;11.20;5.47;;;14.20;86.10;;;;;;5038116;28;20033;-74
2023/07/05 03:33:37;;;;;;;9.20;5.07;;;14.20;85.90;;;;;;5028224;28;20026;-74
2023/07/05 03:36:06;;;;;;;10.18;5.07;;;14.20;85.50;;;;;;5027115;28;20087;-74
2023/07/05 03:38:33;;;;;;;8.63;4.45;;;14.10;85.50;;;;;;5025573;28;20405;-74
2023/07/05 03:41:10;;;;;;;11.88;4.97;;;14.10;85.50;;;;;;5035391;28;20057;-74
2023/07/05 03:43:36;;;;;;;11.18;5.22;;;14.10;85.20;;;;;;5028916;28;20029;-73
2023/07/05 03:46:07;;;;;;;9.75;5.00;;;14.10;85.00;;;;;;5027786;28;20087;-74
2023/07/05 03:48:38;;;;;;;10.38;5.28;;;14.10;85.00;;;;;;5027449;28;20033;-74
2023/07/05 03:51:05;;;;;;;11.60;5.72;;;14.10;84.90;;;;;;5031107;28;20040;-74
2023/07/05 03:53:33;;;;;;;10.90;5.00;;;14.10;84.60;;;;;;5027628;28;20556;-74
2023/07/05 03:56:04;;;;;;;12.07;5.38;;;14.10;84.90;;;;;;5029338;28;20502;-74
2023/07/05 03:58:30;;;;;;;10.80;5.15;;;14.10;85.00;;;;;;5029188;28;20525;-76
2023/07/05 04:01:14;;;;;;;11.05;5.82;;;14.10;84.80;;;;;;5029249;28;20044;-74
2023/07/05 04:03:41;;;;;;;11.57;5.45;;;14.10;84.90;;;;;;5024716;28;20033;-74
2023/07/05 04:06:07;;;;;;;14.05;6.30;;;14.10;85.10;;;;;;5034083;28;20109;-74
2023/07/05 04:08:32;;;;;;;11.32;5.68;;;14.10;85.20;;;;;;5034766;28;20112;-75
2023/07/05 04:10:58;;;;;;;10.02;5.13;;;14.10;85.20;;;;;;5031701;28;20215;-74
2023/07/05 04:13:24;;;;;;;10.38;5.15;;;14.10;85.00;;;;;;5026567;28;20037;-75
2023/07/05 04:16:10;;;;;;;11.15;5.80;;;14.10;84.80;;;;;;5030472;28;20049;-74
2023/07/05 04:18:37;;;;;;;10.07;5.40;;;14.10;85.10;;;;;;5033863;28;20040;-78
2023/07/05 04:21:03;;;;;;;9.95;5.55;;;14.10;84.60;;;;;;5029086;28;20710;-74
2023/07/05 04:23:28;;;;;;;9.98;4.93;;;14.10;84.80;;;;;;5041551;28;20029;-75
2023/07/05 04:26:12;;;;;;;10.80;5.22;;;14.10;84.70;;;;;;5037282;28;20069;-75
2023/07/05 04:28:39;;;;;;;9.25;5.00;;;14.10;84.30;;;;;;5030143;28;20038;-74
2023/07/05 04:31:09;;;;;;;11.32;5.80;;;14.10;84.30;;;;;;5031374;28;20044;-74
2023/07/05 04:33:35;;;;;;;10.13;4.95;;;14.10;84.10;;;;;;5030700;28;20022;-74
2023/07/05 04:36:02;;;;;;;11.95;5.72;;;14.10;83.90;;;;;;5032107;28;20050;-74
2023/07/05 04:38:28;;;;;;;11.13;5.10;;;14.10;84.10;;;;;;5036581;28;20059;-74
2023/07/05 04:40:56;;;;;;;11.32;5.10;;;14.10;83.90;;;;;;5040607;28;20036;-75
2023/07/05 04:43:21;;;;;;;10.50;5.60;;;14.10;84.00;;;;;;5032838;28;20425;-74
2023/07/05 04:45:51;;;;;;;12.27;5.93;;;14.10;84.30;;;;;;5033496;28;20064;-77
2023/07/05 04:48:17;;;;;;;10.15;5.43;;;14.00;83.80;;;;;;5024195;28;20263;-75
2023/07/05 04:50:44;;;;;;;8.90;5.45;;;14.10;83.60;;;;;;5027661;28;20029;-74
2023/07/05 04:53:09;;;;;;;13.30;5.72;;;14.10;83.00;;;;;;5038346;28;20076;-74
2023/07/05 04:55:35;;;;;;;9.90;5.05;;;14.10;83.30;;;;;;5039407;28;20073;-75
2023/07/05 04:58:03;;;;;;;9.82;4.93;;;14.10;83.40;;;;;;5035924;28;20049;-77
2023/07/05 05:00:29;;;;;;;12.32;4.95;;;14.10;83.50;;;;;;5026250;28;20037;-74
2023/07/05 05:02:55;;;;;;;10.43;4.75;;;14.00;83.90;;;;;;5030897;28;20369;-74
2023/07/05 05:05:20;;;;;;;11.00;5.45;;;14.00;83.60;;;;;;5044532;28;20036;-74
2023/07/05 05:07:46;;;;;;;9.60;4.82;;;14.10;83.90;;;;;;5028717;28;20647;-73
2023/07/05 05:10:11;;;;;;;11.38;5.60;;;14.10;83.70;;;;;;5034752;28;20021;-74
2023/07/05 05:12:37;;;;;;;12.32;5.50;;;14.30;83.40;;;;;;5035099;28;20033;-75
2023/07/05 05:15:03;;;;;;;9.70;4.63;;;14.60;82.80;;;;;;5029917;28;20383;-73
2023/07/05 05:17:29;;;;;;;9.70;4.72;;;15.40;80.10;;;;;;5027106;28;20075;-77
2023/07/05 05:19:54;;;;;;;8.50;4.38;;;16.20;77.00;;;;;;5031778;28;20057;-74
2023/07/05 05:22:20;;;;;;;10.10;4.70;;;16.80;75.10;;;;;;5036705;28;20413;-74
2023/07/05 05:24:46;;;;;;;8.13;4.20;;;18.00;71.80;;;;;;5036018;28;20159;-75
2023/07/05 05:27:12;;;;;;;9.55;3.70;;;19.10;66.80;;;;;;5032792;28;20440;-75
2023/07/05 05:29:37;;;;;;;9.43;4.28;;;19.40;65.10;;;;;;5037393;28;20037;-74
2023/07/05 05:32:03;;;;;;;8.88;4.05;;;19.60;64.20;;;;;;5030521;28;20038;-72
2023/07/05 05:34:29;;;;;;;8.55;3.88;;;19.70;63.00;;;;;;5029036;28;20095;-76
2023/07/05 05:36:55;;;;;;;7.68;3.58;;;20.30;61.40;;;;;;5028788;28;20044;-76
2023/07/05 05:39:23;;;;;;;7.15;3.55;;;20.70;59.90;;;;;;5039259;28;20036;-75
2023/07/05 05:41:50;;;;;;;7.70;3.78;;;20.40;59.70;;;;;;5031247;28;20034;-76
2023/07/05 05:44:15;;;;;;;7.30;3.13;;;21.00;58.40;;;;;;5037262;28;20032;-75
2023/07/05 05:46:41;;;;;;;7.53;3.53;;;20.90;58.80;;;;;;5029117;28;20143;-75
2023/07/05 05:49:07;;;;;;;7.32;3.22;;;20.60;59.40;;;;;;5031057;28;20032;-75
2023/07/05 05:51:32;;;;;;;8.43;3.53;;;21.10;57.80;;;;;;5034774;28;20040;-75
2023/07/05 05:53:58;;;;;;;7.57;3.42;;;20.90;57.50;;;;;;5031911;28;20037;-75
2023/07/05 05:56:24;;;;;;;9.18;3.75;;;20.20;59.80;;;;;;5039289;28;20039;-74
2023/07/05 05:58:49;;;;;;;9.93;3.38;;;19.40;62.50;;;;;;5039809;28;20025;-75
2023/07/05 06:01:15;;;;;;;12.02;3.75;;;19.00;63.60;;;;;;5032437;28;20132;-76
2023/07/05 06:03:41;;;;;;;8.25;3.70;;;18.10;66.50;;;;;;5034856;28;20448;-74
2023/07/05 06:06:07;;;;;;;9.32;3.65;;;17.10;70.10;;;;;;5024419;28;20033;-76
2023/07/05 06:08:32;;;;;;;9.65;4.00;;;16.60;71.90;;;;;;5031307;28;20029;-75
2023/07/05 06:11:00;;;;;;;8.30;3.53;;;16.60;73.30;;;;;;5032406;28;20037;-75
2023/07/05 06:13:27;;;;;;;10.02;3.13;;;16.80;72.60;;;;;;5030261;28;20029;-75
2023/07/05 06:15:55;;;;;;;10.90;3.67;;;16.60;72.50;;;;;;5036404;28;20141;-75
2023/07/05 06:18:20;;;;;;;8.82;3.40;;;16.60;72.90;;;;;;5033752;28;20036;-75
2023/07/05 06:20:46;;;;;;;7.45;3.30;;;16.70;73.80;;;;;;5034541;28;20033;-76
2023/07/05 06:23:12;;;;;;;9.63;3.47;;;16.80;74.00;;;;;;5035435;28;20028;-76
2023/07/05 06:25:37;;;;;;;7.47;3.33;;;16.60;73.40;;;;;;5034317;28;20041;-75
2023/07/05 06:28:03;;;;;;;9.13;3.30;;;16.60;73.40;;;;;;5034479;28;20410;-75
2023/07/05 06:30:29;;;;;;;10.15;3.38;;;16.60;73.50;;;;;;5025015;28;20049;-75
2023/07/05 06:32:55;;;;;;;11.07;3.35;;;16.60;73.80;;;;;;5029858;28;20076;-75
2023/07/05 06:35:21;;;;;;;8.25;3.20;;;16.90;72.40;;;;;;5028911;28;20040;-75
2023/07/05 06:37:47;;;;;;;11.05;3.38;;;16.80;73.00;;;;;;5024152;28;20453;-76
2023/07/05 06:40:13;;;;;;;11.63;3.15;;;16.90;72.00;;;;;;5028875;28;20057;-76
2023/07/05 06:42:39;;;;;;;10.98;3.60;;;16.70;72.40;;;;;;5032475;28;20064;-77
2023/07/05 06:45:05;;;;;;;11.95;3.33;;;16.90;71.90;;;;;;5027529;28;20029;-75
2023/07/05 06:47:31;;;;;;;9.15;2.90;;;16.70;72.00;;;;;;5025274;28;20025;-76
2023/07/05 06:49:57;;;;;;;10.30;3.10;;;16.60;72.20;;;;;;5026106;28;20040;-75
2023/07/05 06:52:23;;;;;;;9.20;2.72;;;16.90;71.80;;;;;;5024945;28;20018;-75
2023/07/05 06:54:49;;;;;;;8.70;2.60;;;16.90;70.90;;;;;;5027972;28;20061;-74
2023/07/05 06:57:15;;;;;;;10.32;3.47;;;16.90;71.00;;;;;;5039888;28;20037;-75
2023/07/05 06:59:44;;;;;;;10.77;2.90;;;17.00;70.60;;;;;;5032616;28;20160;-75
2023/07/05 07:02:10;;;;;;;9.93;3.20;;;17.20;69.50;;;;;;5028721;28;20040;-75
2023/07/05 07:04:35;;;;;;;8.75;2.78;;;17.20;68.60;;;;;;5026291;28;20160;-75
2023/07/05 07:07:01;;;;;;;7.05;2.25;;;17.10;68.90;;;;;;5043254;28;20437;-75
2023/07/05 07:09:27;;;;;;;7.57;2.50;;;17.10;67.70;;;;;;5033214;28;20021;-74
2023/07/05 07:11:52;;;;;;;9.63;2.67;;;17.10;67.50;;;;;;5027146;28;20083;-74
2023/07/05 07:14:18;;;;;;;8.25;2.20;;;17.20;67.30;;;;;;5027230;28;20041;-74
2023/07/05 07:16:44;;;;;;;8.90;2.33;;;17.30;66.10;;;;;;5026593;28;20041;-74
2023/07/05 07:19:09;;;;;;;8.82;2.53;;;17.40;65.70;;;;;;5025409;28;20029;-74
2023/07/05 07:21:37;;;;;;;7.30;1.98;;;17.70;65.30;;;;;;5030340;28;20116;-74
2023/07/05 07:24:03;;;;;;;9.90;2.30;;;18.10;64.60;;;;;;5029157;28;20438;-73
2023/07/05 07:26:29;;;;;;;12.13;2.67;;;18.10;62.70;;;;;;5026541;28;20146;-73
2023/07/05 07:28:55;;;;;;;7.82;2.00;;;17.80;62.70;;;;;;5030538;28;20029;-73
2023/07/05 07:31:28;;;;;;;6.25;2.25;;;17.90;63.50;;;;;;5026620;28;20037;-74
2023/07/05 07:33:54;;;;;;;8.80;2.30;;;18.00;63.70;;;;;;5026811;28;20025;-74
2023/07/05 07:36:24;;;;;;;9.30;2.10;;;18.20;63.10;;;;;;5031952;28;20053;-73
2023/07/05 07:38:51;;;;;;;8.15;2.40;;;18.10;62.70;;;;;;5022368;28;20030;-74
2023/07/05 07:41:20;;;;;;;7.25;2.30;;;18.00;62.70;;;;;;5027792;28;20037;-75
2023/07/05 07:43:48;;;;;;;8.48;2.35;;;18.00;62.70;;;;;;5030471;28;20028;-74
2023/07/05 07:46:17;;;;;;;8.40;2.30;;;18.10;61.80;;;;;;5027563;28;20042;-75
2023/07/05 07:48:46;;;;;;;8.30;2.20;;;17.90;62.70;;;;;;5031582;28;20033;-73
2023/07/05 07:51:12;;;;;;;8.82;2.35;;;18.00;62.70;;;;;;5033223;28;20042;-74
2023/07/05 07:53:38;;;;;;;8.30;2.50;;;18.10;62.30;;;;;;5030194;28;20389;-73
2023/07/05 07:56:14;;;;;;;7.63;2.10;;;18.60;60.20;;;;;;5041183;28;20033;-74
2023/07/05 07:58:41;;;;;;;7.05;2.42;;;18.70;61.70;;;;;;5036309;28;20025;-74
2023/07/05 08:01:17;;;;;;;10.38;2.80;;;18.90;60.30;;;;;;5034976;28;20091;-73
2023/07/05 08:03:43;;;;;;;7.03;2.30;;;18.80;60.20;;;;;;5040358;28;20021;-73
2023/07/05 08:06:10;;;;;;;6.93;2.03;;;18.90;59.80;;;;;;5032881;28;20084;-75
2023/07/05 08:08:37;;;;;;;9.73;2.13;;;18.80;58.70;;;;;;5032971;28;20035;-73
2023/07/05 08:11:04;;;;;;;8.75;2.35;;;18.70;58.70;;;;;;5025617;28;20041;-73
2023/07/05 08:13:30;;;;;;;4.28;1.90;;;18.70;58.80;;;;;;5028628;28;20367;-73
2023/07/05 08:16:00;;;;;;;8.27;2.28;;;18.50;58.20;;;;;;5029660;28;20037;-73
2023/07/05 08:18:27;;;;;;;8.32;2.38;;;18.60;58.60;;;;;;5032284;28;20530;-73
2023/07/05 08:20:53;;;;;;;6.55;2.20;;;18.70;58.90;;;;;;5033180;28;20445;-75
2023/07/05 08:23:18;;;;;;;7.13;2.10;;;18.70;59.20;;;;;;5029294;28;20025;-73
2023/07/05 08:25:46;;;;;;;5.50;2.00;;;18.90;59.90;;;;;;5031452;28;20433;-74
2023/07/05 08:28:13;;;;;;;7.28;2.13;;;19.10;57.10;;;;;;5036270;28;20473;-74
2023/07/05 08:30:39;;;;;;;6.30;1.73;;;19.60;57.40;;;;;;5038157;28;20497;-75
2023/07/05 08:33:06;;;;;;;10.50;2.17;;;19.30;55.20;;;;;;5031792;28;20345;-76
2023/07/05 08:35:32;;;;;;;7.32;2.10;;;19.30;56.30;;;;;;5032881;28;20029;-76
2023/07/05 08:37:59;;;;;;;7.97;2.00;;;19.50;56.10;;;;;;5034913;28;20029;-75
2023/07/05 08:40:31;;;;;;;6.82;1.85;;;19.50;57.60;;;;;;5030723;28;20041;-75
2023/07/05 08:43:22;;;;;;;7.63;1.85;;;19.60;56.80;;;;;;5035405;28;20049;-74
2023/07/05 08:45:53;;;;;;;9.40;2.17;;;19.90;56.10;;;;;;5042840;28;20699;-74
2023/07/05 08:48:19;;;;;;;7.88;1.98;;;19.90;56.00;;;;;;5035672;28;20523;-75
2023/07/05 08:50:49;;;;;;;6.80;1.92;;;19.80;55.40;;;;;;5033832;28;20033;-74
2023/07/05 08:53:19;;;;;;;5.05;2.03;;;19.90;55.80;;;;;;5033589;28;20096;-73
2023/07/05 08:56:05;;;;;;;8.40;2.22;;;19.90;55.80;;;;;;5028404;28;20548;-74
2023/07/05 08:58:44;;;;;;;6.13;2.03;;;20.00;55.60;;;;;;5038590;28;20022;-74
2023/07/05 09:01:42;;;;;;;4.43;1.75;;;20.20;55.20;;;;;;5034840;28;20374;-74
2023/07/05 09:04:17;;;;;;;7.50;2.10;;;19.80;53.70;;;;;;5023697;28;20526;-74
2023/07/05 09:06:54;;;;;;;7.38;2.25;;;20.00;54.10;;;;;;5031302;28;20060;-74
2023/07/05 09:09:29;;;;;;;5.90;2.00;;;20.10;56.20;;;;;;5031146;28;20029;-74
2023/07/05 09:12:04;;;;;;;5.15;1.80;;;19.80;56.20;;;;;;5026455;28;20037;-73
2023/07/05 09:14:41;;;;;;;6.45;1.92;;;20.30;53.10;;;;;;5037674;28;20057;-73
2023/07/05 09:17:41;;;;;;;4.43;2.00;;;20.60;51.30;;;;;;5032146;28;20030;-74
2023/07/05 09:20:32;;;;;;;7.05;2.10;;;20.90;51.80;;;;;;5022508;28;20528;-73
2023/07/05 09:23:02;;;;;;;7.43;2.10;;;20.10;53.80;;;;;;5032773;28;20453;-75
2023/07/05 09:25:31;;;;;;;6.53;1.98;;;20.10;54.30;;;;;;5034869;28;20131;-75
2023/07/05 09:28:29;;;;;;;6.43;2.55;;;19.80;55.50;;;;;;5030477;28;20037;-74
2023/07/05 09:30:58;;;;;;;7.13;2.30;;;19.70;55.90;;;;;;5041985;28;20457;-74
2023/07/05 09:33:33;;;;;;;5.25;1.83;;;20.10;56.10;;;;;;5042764;28;20105;-75
2023/07/05 09:36:08;;;;;;;7.05;2.30;;;20.40;56.30;;;;;;5029380;28;20064;-74
2023/07/05 09:38:41;;;;;;;;;;;20.50;55.70;;;;;;5032548;28;20037;-74
2023/07/05 09:41:35;;;;;;;10.30;2.63;;;20.40;55.30;;;;;;5026706;28;19917;-74
2023/07/05 09:44:01;;;;;;;7.10;2.45;;;20.30;55.20;;;;;;5026282;28;20041;-75
2023/07/05 09:46:31;;;;;;;6.55;2.03;;;20.10;56.30;;;;;;5031961;28;20370;-74
2023/07/05 09:48:57;;;;;;;6.72;2.50;;;20.20;56.10;;;;;;5029379;28;20041;-75
2023/07/05 09:51:23;;;;;;;6.95;2.05;;;20.70;54.50;;;;;;5033525;28;20072;-73
2023/07/05 09:53:58;;;;;;;9.55;2.40;;;20.60;54.80;;;;;;5036967;28;20032;-73
2023/07/05 09:56:28;;;;;;;6.65;2.20;;;21.00;53.30;;;;;;5038103;28;20044;-74
2023/07/05 09:59:10;;;;;;;6.15;2.10;;;20.90;53.40;;;;;;5034664;28;20116;-74
2023/07/05 10:01:40;;;;;;;5.28;2.03;;;20.60;53.30;;;;;;5031030;28;20612;-74
2023/07/05 10:04:07;;;;;;;8.45;1.88;;;20.60;52.80;;;;;;5031341;28;20026;-73
2023/07/05 10:06:38;;;;;;;6.60;2.17;;;20.70;51.10;;;;;;5032455;28;20131;-74
2023/07/05 10:09:15;;;;;;;5.55;1.95;;;20.90;51.10;;;;;;5035557;28;20122;-74
2023/07/05 10:11:46;;;;;;;7.90;2.03;;;21.10;52.50;;;;;;5021922;28;20061;-73
2023/07/05 10:14:18;;;;;;;7.65;2.50;;;21.50;52.10;;;;;;5019924;28;20061;-73
2023/07/05 10:16:45;;;;;;;6.97;1.95;;;21.60;52.20;;;;;;5026911;28;20025;-74
2023/07/05 10:19:25;;;;;;;6.75;1.90;;;21.60;50.90;;;;;;5036227;28;20021;-74
2023/07/05 10:22:06;;;;;;;4.57;1.80;;;21.40;50.50;;;;;;5022537;28;20110;-74
2023/07/05 10:24:40;;;;;;;5.53;1.77;;;21.30;50.60;;;;;;5030186;28;20090;-74
2023/07/05 10:27:24;;;;;;;6.72;2.25;;;21.70;51.70;;;;;;5037180;28;20060;-73
2023/07/05 10:30:06;;;;;;;7.50;2.20;;;21.80;49.90;;;;;;5030439;28;20095;-74
2023/07/05 10:32:32;;;;;;;7.07;2.03;;;21.30;50.30;;;;;;5024129;28;20567;-72
2023/07/05 10:35:00;;;;;;;5.40;1.77;;;21.40;49.80;;;;;;5039937;28;20061;-74
2023/07/05 10:37:29;;;;;;;8.88;2.17;;;21.80;51.10;;;;;;5035695;28;20045;-74
2023/07/05 10:39:56;;;;;;;4.47;1.60;;;22.10;50.50;;;;;;5023233;28;20032;-74
2023/07/05 10:42:24;;;;;;;5.38;2.00;;;22.10;48.40;;;;;;5026589;28;20377;-74
2023/07/05 10:44:50;;;;;;;5.38;1.88;;;22.10;47.90;;;;;;5031767;28;20458;-75
2023/07/05 10:47:17;;;;;;;4.93;2.00;;;22.00;47.50;;;;;;5031576;28;20052;-74
2023/07/05 10:49:44;;;;;;;5.13;1.65;;;21.20;49.80;;;;;;5032348;28;20299;-74
2023/07/05 10:52:15;;;;;;;5.82;1.98;;;20.80;50.70;;;;;;5026621;28;20037;-75
2023/07/05 10:54:49;;;;;;;5.65;2.38;;;20.60;52.40;;;;;;5032829;28;20108;-75
2023/07/05 10:57:15;;;;;;;;;;;20.90;53.30;;;;;;5031831;28;20041;-74
2023/07/05 10:59:45;;;;;;;3.53;1.45;;;21.60;49.90;;;;;;5031230;28;20361;-75
2023/07/05 11:02:38;;;;;;;5.75;1.92;;;22.20;48.30;;;;;;5030961;28;20460;-75
2023/07/05 11:05:16;;;;;;;7.78;2.42;;;22.10;49.40;;;;;;5029334;28;20087;-75
2023/07/05 11:07:44;;;;;;;6.55;2.08;;;22.20;50.20;;;;;;5029118;28;20051;-75
2023/07/05 11:10:14;;;;;;;6.25;2.28;;;22.50;48.90;;;;;;5038947;28;20654;-75
2023/07/05 11:12:41;;;;;;;5.75;1.80;;;22.60;48.00;;;;;;5035740;28;20083;-74
2023/07/05 11:15:21;;;;;;;6.28;2.25;;;22.90;49.00;;;;;;5029473;28;20050;-76
2023/07/05 11:17:48;;;;;;;5.32;1.80;;;23.10;47.50;;;;;;5032498;28;20080;-75
2023/07/05 11:20:44;;;;;;;9.00;2.53;;;22.20;49.40;;;;;;5018676;28;20045;-75
2023/07/05 11:23:11;;;;;;;5.65;2.03;;;22.50;50.30;;;;;;5024167;28;20029;-77
2023/07/05 11:25:58;;;;;;;6.32;2.22;;;22.70;47.90;;;;;;5029217;28;20072;-75
2023/07/05 11:28:41;;;;;;;4.68;2.05;;;22.50;49.60;;;;;;5032798;28;20040;-77
2023/07/05 11:31:09;;;;;;;5.05;1.80;;;23.00;48.90;;;;;;5025188;28;20186;-76
2023/07/05 11:33:35;;;;;;;8.15;1.92;;;22.90;47.60;;;;;;5030362;28;20087;-76
2023/07/05 11:36:28;;;;;;;4.88;2.10;;;23.50;45.80;;;;;;5036753;28;20045;-75
2023/07/05 11:38:56;;;;;;;4.40;1.70;;;23.50;46.20;;;;;;5024721;28;20040;-75
2023/07/05 11:41:37;;;;;;;6.07;2.15;;;22.60;46.40;;;;;;5034534;28;20037;-76
2023/07/05 11:44:27;;;;;;;7.93;2.08;;;22.10;47.70;;;;;;5018557;28;20030;-76
2023/07/05 11:46:54;;;;;;;5.50;2.13;;;22.10;49.40;;;;;;5025939;28;20231;-74
2023/07/05 11:49:20;;;;;;;5.95;2.00;;;22.80;50.10;;;;;;5031348;28;20025;-74
2023/07/05 11:51:49;;;;;;;4.38;2.10;;;23.10;46.90;;;;;;5025642;28;20056;-76
2023/07/05 11:54:17;;;;;;;5.32;2.13;;;23.50;47.50;;;;;;5027711;28;20014;-75
2023/07/05 11:56:45;;;;;;;6.43;2.30;;;23.60;46.20;;;;;;5035712;28;20513;-75
2023/07/05 11:59:13;;;;;;;7.20;1.85;;;23.80;45.80;;;;;;5019603;28;20036;-76
2023/07/05 12:01:41;;;;;;;5.03;1.92;;;23.40;46.70;;;;;;5025591;28;20124;-76
2023/07/05 12:04:12;;;;;;;3.95;1.80;;;23.80;47.00;;;;;;5039918;28;20040;-75
2023/07/05 12:06:40;;;;;;;9.65;2.20;;;23.70;45.80;;;;;;5030302;28;20467;-75
2023/07/05 12:09:17;;;;;;;5.05;1.90;;;23.40;47.60;;;;;;5025018;28;20931;-76
2023/07/05 12:11:43;;;;;;;3.97;1.90;;;23.60;47.30;;;;;;5029382;28;20385;-74
2023/07/05 12:14:15;;;;;;;5.25;2.20;;;24.20;45.80;;;;;;5035185;28;20061;-76
2023/07/05 12:16:42;;;;;;;5.75;2.15;;;23.80;46.00;;;;;;5031093;28;20025;-75
2023/07/05 12:19:23;;;;;;;4.75;2.00;;;23.90;47.10;;;;;;5035334;28;20140;-75
2023/07/05 12:22:04;;;;;;;5.63;2.10;;;24.40;46.70;;;;;;5028577;28;20082;-75
2023/07/05 12:24:59;;;;;;;7.75;2.50;;;24.50;47.50;;;;;;5018500;28;20026;-75
2023/07/05 12:27:25;;;;;;;;;;;24.10;48.20;;;;;;5025096;28;20052;-75
2023/07/05 12:29:57;;;;;;;6.63;1.88;;;23.80;47.70;;;;;;5039106;28;20467;-75
2023/07/05 12:32:26;;;;;;;6.05;2.13;;;23.80;48.70;;;;;;5031653;28;20040;-76
2023/07/05 12:35:25;;;;;;;8.23;2.28;;;23.90;49.70;;;;;;5031204;28;20095;-75
2023/07/05 12:37:55;;;;;;;8.50;2.20;;;23.60;49.10;;;;;;5007227;28;20377;-74
2023/07/05 12:40:40;;;;;;;5.35;1.77;;;24.10;50.50;;;;;;5031706;28;20069;-76
2023/07/05 12:43:08;;;;;;;6.55;2.22;;;24.30;47.40;;;;;;5026776;28;20104;-77
2023/07/05 12:45:39;;;;;;;7.35;2.10;;;24.10;46.40;;;;;;5035091;28;20537;-76
2023/07/05 12:48:25;;;;;;;7.63;2.60;;;23.50;48.30;;;;;;5035817;28;20416;-74
2023/07/05 12:51:14;;;;;;;11.35;2.95;;;23.30;52.10;;;;;;5044457;28;20049;-75
2023/07/05 12:53:40;;;;;;;8.00;2.50;;;23.10;53.30;;;;;;5030992;28;20056;-75
2023/07/05 12:56:12;;;;;;;6.63;2.20;;;23.40;54.40;;;;;;5037393;28;20033;-75
2023/07/05 12:58:47;;;;;;;5.00;2.00;;;23.80;53.80;;;;;;5031604;28;20021;-75